x

Port Stanley (45132) Wave Buoy

12:00am - Sat 23rd May 2015 All times are CDT. -5 hours from GMT.

  • Sig Wave height 0.3ft
  • Peak Period 4s
  • Wind
    4mph
  • Sea Temp 47°f
  • Air Temp 47°f
  • Sea Pressure 1028.2mb
  • Port Stanley
  • Port Stanley

More Historic Weather Station data

Upgrade to MSW Pro to gain access to the past 30 days of data for over 8000 Wavebouys and Weather Stations around the globe.

Join Pro

Comparision Forecast

View Surf forecast
   
Sat 05/23 12:00am 0.3ft 4s 4
mph
1028.2mb 47f 47f
Fri 05/22 11:00pm 0.3ft 2s 7
mph
1027.4mb 47f 48f
10:00pm 0.3ft 2s 7
mph
1027.1mb 47f 48f
9:00pm 0.3ft 2s 9
mph
1026.1mb 47f 49f
8:00pm 0.3ft 4s 9
mph
1025.4mb 47f 50f
7:00pm 0.7ft 3s 7
mph
1024.8mb 47f 51f
6:00pm 1ft 3s 7
mph
1024.4mb 48f 52f
5:00pm 1.3ft 3s 9
mph
1024.2mb 48f 52f
4:00pm 2ft 4s 11 13 mph 1024.2mb 47f 52f
3:00pm 2.5ft 4s 16 20 mph 1023.8mb 47f 51f
2:00pm 2ft 3s 18 22 mph 1023.1mb 47f 51f
1:00pm 1.3ft 4s 13 18 mph 1021.8mb 47f 51f
12:00pm 1.3ft 4s 13 16 mph 1021mb 47f 51f
11:00am 1ft 4s 11 16 mph 1020.4mb 47f 51f
10:00am 1ft 4s 9 11 mph 1020.2mb 47f 49f
9:00am 1ft 4s 9 11 mph 1019.6mb 47f 48f
8:00am 1ft 4s 9 11 mph 1019.1mb 47f 48f
7:00am 1ft 4s 13 16 mph 1018.6mb 47f 47f
6:00am 1ft 4s 9 11 mph 1017.7mb 47f 48f
5:00am 1.3ft 4s 9
mph
1017mb 47f 48f
4:00am 1.3ft 4s 7 9 mph 1016.1mb 47f 48f
3:00am 1.3ft 4s 9 11 mph 1015.6mb 47f 49f
2:00am 1.3ft 4s 11 13 mph 1015mb 47f 50f
1:00am 1.6ft 4s 13
mph
1014.5mb 47f 50f
12:00am 1.6ft 4s 13 16 mph 1014mb 47f 49f
Thu 05/21 11:00pm 1.6ft 3s 13 16 mph 1014mb 47f 50f
10:00pm 1.6ft 4s 16 18 mph 1013.8mb 47f 49f
9:00pm 2ft 4s 16 18 mph 1013.8mb 47f 49f
8:00pm 2.5ft 4s 18 20 mph 1013.5mb 47f 49f
7:00pm 2.5ft 4s 18 20 mph 1013.4mb 47f 50f
6:00pm 2.5ft 4s 18 22 mph 1013.3mb 47f 49f
5:00pm 2.5ft 4s 22 27 mph 1013.3mb 47f 50f
4:00pm 2ft 4s 20 22 mph 1013.5mb 47f 50f
3:00pm 1.3ft 3s 18 20 mph 1013.3mb 48f 49f
2:00pm 1ft 3s 16 18 mph 1013.7mb 48f 49f
1:00pm 0.7ft 2s 13 18 mph 1014.4mb 48f 49f
12:00pm 0.3ft 2s 11 13 mph 1015.1mb 48f 49f
11:00am 0.3ft 2s 9 11 mph 1015.4mb 48f 49f
10:00am 0.3ft 2s 7 9 mph 1016mb 48f 49f
9:00am 0.3ft 3s 7
mph
1016.1mb 48f 48f
8:00am 0.3ft 3s 4
mph
1016.2mb 47f 47f
7:00am 0.3ft 3s 4
mph
1016.1mb 47f 48f
6:00am 0.3ft 3s 4
mph
1016.2mb 47f 47f
5:00am 0.3ft 3s 4 7 mph 1016.6mb 47f 48f
4:00am 0.3ft 3s 4 7 mph 1016.6mb 47f 49f
3:00am 0.7ft 3s 9 11 mph 1016.9mb 47f 48f
2:00am 0.7ft 3s 13 16 mph 1017.3mb 47f 48f
1:00am 0.7ft 3s 9 11 mph 1017.7mb 47f 48f
12:00am 0.7ft 3s 7 9 mph 1017.6mb 47f 47f
Wed 05/20 11:00pm 1ft 3s 7 9 mph 1017.8mb 47f 47f
10:00pm 1ft 3s 7 9 mph 1017.7mb 47f 46f
9:00pm 1.3ft 3s 7 9 mph 1018.2mb 47f 46f
8:00pm 1.6ft 4s 9 13 mph 1018.7mb 47f 46f
7:00pm 1.6ft 4s 13 16 mph 1019.3mb 47f 46f
6:00pm 1.6ft 3s 16 18 mph 1019.4mb 47f 46f
5:00pm 1.3ft 3s 13 16 mph 1020mb 47f 46f
4:00pm 1.3ft 3s 16 18 mph 1020.4mb 47f 45f
3:00pm 1ft 3s 16 20 mph 1020.8mb 47f 45f
2:00pm 0.7ft 2s 13 16 mph 1021mb 47f 45f
1:00pm 0.3ft 2s 16 18 mph 1021.5mb 47f 44f
12:00pm 0.3ft 2s 11 13 mph 1021.9mb 47f 44f
11:00am 0.7ft 3s 4 7 mph 1022.4mb 47f 44f
10:00am 0.7ft 3s 9
mph
1022.9mb 46f 42f
9:00am 1ft 3s 9 13 mph 1022.6mb 46f 42f
8:00am 1.3ft 3s 11 16 mph 1022.6mb 46f 41f
7:00am 1.3ft 3s 16 18 mph 1022.3mb 46f 40f
6:00am 1.6ft 3s 18 22 mph 1021.8mb 46f 40f
5:00am 1.6ft 4s 16 20 mph 1021mb 46f 40f
4:00am 2ft 3s 20 25 mph 1020.9mb 46f 41f
3:00am 1.6ft 3s 18 22 mph 1020.7mb 47f 43f
2:00am 2ft 4s 16 18 mph 1019.9mb 47f 43f
1:00am 2.5ft 4s 20 25 mph 1019.7mb 47f 44f
12:00am 2.5ft 4s 20 22 mph 1019.3mb 47f 45f
Tue 05/19 11:00pm 2.5ft 4s 18 22 mph 1019.5mb 47f 47f
10:00pm 1.6ft 3s 20 25 mph 1019.3mb 48f 49f
9:00pm 1.6ft 4s 13 16 mph 1019.3mb 48f 50f
8:00pm 1.6ft 5s 13 16 mph 1018.7mb 48f 50f
7:00pm 2ft 3s 11 13 mph 1018.5mb 48f 50f
6:00pm 1.6ft 4s 16 18 mph 1018.1mb 48f 50f
5:00pm 1.6ft 4s 16 20 mph 1018mb 48f 51f
4:00pm 1.3ft 4s 13 16 mph 1017.8mb 48f 50f
3:00pm 1ft 3s 16 18 mph 1017.4mb 49f 50f
2:00pm 1.3ft 3s 11 13 mph 1017.5mb 49f 51f
1:00pm 1.3ft 3s 13 16 mph 1017.4mb 49f 52f
12:00pm 0.7ft 3s 13 18 mph 1017.3mb 49f 53f
11:00am 0.7ft 3s 11 13 mph 1017mb 50f 53f
10:00am 0.7ft 3s 9
mph
1016.8mb 49f 52f
9:00am 0.7ft 3s 7 9 mph 1016.5mb 49f 52f
8:00am 0.7ft 3s 9 11 mph 1016.4mb 49f 52f
7:00am 0.7ft 3s 7 9 mph 1016.1mb 48f 52f